Terminal Aerodrome Forecast
Issued by NWS Sterling, VA

Current Version | Previous Version | Text Only | Print | Product List | Glossary Off
Versions: 1 2 3 4 5 6 7 8 9 10 11 12 13 14 15 16 17 18 19 20 21 22 23 24 25 26

806
FTUS41 KLWX 211319 AAA
TAFMRB
TAF AMD
KMRB 211319Z 2113/2212 00000KT 1/4SM -DZ FG OVC002
     FM211600 00000KT 2SM -DZ BR OVC003
     FM211700 VRB03KT P6SM BKN008 OVC015
     FM212300 12004KT 5SM -DZ BR OVC003
     FM220600 VRB03KT 1/4SM -DZ FG OVC002=

USA.gov is the U.S. government's official web portal to all federal, state and local government web resources and services.